sensor_id;sensor_type;location;lat;lon;timestamp;temperature;humidity
28767;DHT22;15921;52.034;20.650;2023-03-20T00:00:53;4.90;99.90
28767;DHT22;15921;52.034;20.650;2023-03-20T00:03:18;4.80;99.90
28767;DHT22;15921;52.034;20.650;2023-03-20T00:05:45;4.80;99.90
28767;DHT22;15921;52.034;20.650;2023-03-20T00:08:10;4.80;99.90
28767;DHT22;15921;52.034;20.650;2023-03-20T00:10:41;4.80;99.90
28767;DHT22;15921;52.034;20.650;2023-03-20T00:13:13;4.70;99.90
28767;DHT22;15921;52.034;20.650;2023-03-20T00:15:42;4.70;99.90
28767;DHT22;15921;52.034;20.650;2023-03-20T00:18:16;4.70;99.90
28767;DHT22;15921;52.034;20.650;2023-03-20T00:20:46;4.60;99.90
28767;DHT22;15921;52.034;20.650;2023-03-20T00:23:12;4.60;99.90
28767;DHT22;15921;52.034;20.650;2023-03-20T00:25:39;4.60;99.90
28767;DHT22;15921;52.034;20.650;2023-03-20T00:31:27;4.60;99.90
28767;DHT22;15921;52.034;20.650;2023-03-20T00:33:58;4.60;99.90
28767;DHT22;15921;52.034;20.650;2023-03-20T00:36:25;4.50;99.90
28767;DHT22;15921;52.034;20.650;2023-03-20T00:38:51;4.50;99.90
28767;DHT22;15921;52.034;20.650;2023-03-20T00:41:42;4.50;99.90
28767;DHT22;15921;52.034;20.650;2023-03-20T00:44:27;4.50;99.90
28767;DHT22;15921;52.034;20.650;2023-03-20T00:46:59;4.40;99.90
28767;DHT22;15921;52.034;20.650;2023-03-20T00:49:28;4.40;99.90
28767;DHT22;15921;52.034;20.650;2023-03-20T00:51:54;4.40;99.90
28767;DHT22;15921;52.034;20.650;2023-03-20T00:54:21;4.40;99.90
28767;DHT22;15921;52.034;20.650;2023-03-20T00:57:02;4.40;99.90
28767;DHT22;15921;52.034;20.650;2023-03-20T00:59:36;4.50;99.90
28767;DHT22;15921;52.034;20.650;2023-03-20T01:02:05;4.50;99.90
28767;DHT22;15921;52.034;20.650;2023-03-20T01:04:40;4.40;99.90
28767;DHT22;15921;52.034;20.650;2023-03-20T01:07:11;4.50;99.90
28767;DHT22;15921;52.034;20.650;2023-03-20T01:09:37;4.50;99.90
28767;DHT22;15921;52.034;20.650;2023-03-20T01:12:03;4.50;99.90
28767;DHT22;15921;52.034;20.650;2023-03-20T01:14:29;4.40;99.90
28767;DHT22;15921;52.034;20.650;2023-03-20T01:16:55;4.40;99.90
28767;DHT22;15921;52.034;20.650;2023-03-20T01:19:21;4.40;99.90
28767;DHT22;15921;52.034;20.650;2023-03-20T01:21:47;4.40;99.90
28767;DHT22;15921;52.034;20.650;2023-03-20T01:24:12;4.40;99.90
28767;DHT22;15921;52.034;20.650;2023-03-20T01:26:40;4.40;99.90
28767;DHT22;15921;52.034;20.650;2023-03-20T01:29:21;4.30;99.90
28767;DHT22;15921;52.034;20.650;2023-03-20T01:31:48;4.30;99.90
28767;DHT22;15921;52.034;20.650;2023-03-20T01:34:14;4.30;99.90
28767;DHT22;15921;52.034;20.650;2023-03-20T01:36:54;4.40;99.90
28767;DHT22;15921;52.034;20.650;2023-03-20T01:39:21;4.40;99.90
28767;DHT22;15921;52.034;20.650;2023-03-20T01:41:50;4.30;99.90
28767;DHT22;15921;52.034;20.650;2023-03-20T01:44:23;4.40;99.90
28767;DHT22;15921;52.034;20.650;2023-03-20T01:46:51;4.40;99.90
28767;DHT22;15921;52.034;20.650;2023-03-20T01:51:46;4.40;99.90
28767;DHT22;15921;52.034;20.650;2023-03-20T01:54:17;4.40;99.90
28767;DHT22;15921;52.034;20.650;2023-03-20T01:56:56;4.30;99.90
28767;DHT22;15921;52.034;20.650;2023-03-20T02:01:59;4.30;99.90
28767;DHT22;15921;52.034;20.650;2023-03-20T02:04:29;4.20;99.90
28767;DHT22;15921;52.034;20.650;2023-03-20T02:06:56;4.30;99.90
28767;DHT22;15921;52.034;20.650;2023-03-20T02:09:22;4.20;99.90
28767;DHT22;15921;52.034;20.650;2023-03-20T02:11:48;4.30;99.90
28767;DHT22;15921;52.034;20.650;2023-03-20T02:14:14;4.30;99.90
28767;DHT22;15921;52.034;20.650;2023-03-20T02:16:40;4.30;99.90
28767;DHT22;15921;52.034;20.650;2023-03-20T02:19:10;4.30;99.90
28767;DHT22;15921;52.034;20.650;2023-03-20T02:27:58;4.40;99.90
28767;DHT22;15921;52.034;20.650;2023-03-20T02:44:17;4.60;99.90
28767;DHT22;15921;52.034;20.650;2023-03-20T02:47:07;4.50;99.90
28767;DHT22;15921;52.034;20.650;2023-03-20T02:49:54;4.50;99.90
28767;DHT22;15921;52.034;20.650;2023-03-20T02:52:31;4.50;99.90
28767;DHT22;15921;52.034;20.650;2023-03-20T02:55:17;4.50;99.90
28767;DHT22;15921;52.034;20.650;2023-03-20T02:57:50;4.40;99.90
28767;DHT22;15921;52.034;20.650;2023-03-20T03:00:31;4.30;99.90
28767;DHT22;15921;52.034;20.650;2023-03-20T03:04:01;4.30;99.90
28767;DHT22;15921;52.034;20.650;2023-03-20T03:05:59;4.10;99.90
28767;DHT22;15921;52.034;20.650;2023-03-20T03:08:31;4.00;99.90
28767;DHT22;15921;52.034;20.650;2023-03-20T03:11:02;3.90;99.90
28767;DHT22;15921;52.034;20.650;2023-03-20T03:13:30;4.00;99.90
28767;DHT22;15921;52.034;20.650;2023-03-20T03:16:01;4.10;99.90
28767;DHT22;15921;52.034;20.650;2023-03-20T03:18:29;4.20;99.90
28767;DHT22;15921;52.034;20.650;2023-03-20T03:20:58;4.20;99.90
28767;DHT22;15921;52.034;20.650;2023-03-20T03:23:27;4.30;99.90
28767;DHT22;15921;52.034;20.650;2023-03-20T03:25:56;4.20;99.90
28767;DHT22;15921;52.034;20.650;2023-03-20T03:28:40;4.20;99.90
28767;DHT22;15921;52.034;20.650;2023-03-20T03:31:10;4.20;99.90
28767;DHT22;15921;52.034;20.650;2023-03-20T03:33:38;4.20;99.90
28767;DHT22;15921;52.034;20.650;2023-03-20T03:39:51;4.20;99.90
28767;DHT22;15921;52.034;20.650;2023-03-20T03:42:36;4.10;99.90
28767;DHT22;15921;52.034;20.650;2023-03-20T03:45:07;4.10;99.90
28767;DHT22;15921;52.034;20.650;2023-03-20T03:47:57;4.10;99.90
28767;DHT22;15921;52.034;20.650;2023-03-20T03:50:30;4.00;99.90
28767;DHT22;15921;52.034;20.650;2023-03-20T03:52:59;4.00;99.90
28767;DHT22;15921;52.034;20.650;2023-03-20T03:55:31;4.00;99.90
28767;DHT22;15921;52.034;20.650;2023-03-20T03:58:09;4.00;99.90
28767;DHT22;15921;52.034;20.650;2023-03-20T04:00:37;4.10;99.90
28767;DHT22;15921;52.034;20.650;2023-03-20T04:03:06;4.10;99.90
28767;DHT22;15921;52.034;20.650;2023-03-20T04:05:35;4.00;99.90
28767;DHT22;15921;52.034;20.650;2023-03-20T04:08:04;4.00;99.90
28767;DHT22;15921;52.034;20.650;2023-03-20T04:10:30;4.00;99.90
28767;DHT22;15921;52.034;20.650;2023-03-20T04:12:55;3.90;99.90
28767;DHT22;15921;52.034;20.650;2023-03-20T04:15:21;3.90;99.90
28767;DHT22;15921;52.034;20.650;2023-03-20T04:17:47;3.90;99.90
28767;DHT22;15921;52.034;20.650;2023-03-20T04:20:14;3.90;99.90
28767;DHT22;15921;52.034;20.650;2023-03-20T04:22:40;3.90;99.90
28767;DHT22;15921;52.034;20.650;2023-03-20T04:25:08;3.90;99.90
28767;DHT22;15921;52.034;20.650;2023-03-20T04:27:34;3.80;99.90
28767;DHT22;15921;52.034;20.650;2023-03-20T04:30:00;3.90;99.90
28767;DHT22;15921;52.034;20.650;2023-03-20T04:32:26;3.80;99.90
28767;DHT22;15921;52.034;20.650;2023-03-20T04:34:52;3.80;99.90
28767;DHT22;15921;52.034;20.650;2023-03-20T04:37:18;3.70;99.90
28767;DHT22;15921;52.034;20.650;2023-03-20T04:39:43;3.60;99.90
28767;DHT22;15921;52.034;20.650;2023-03-20T04:42:09;3.50;99.90
28767;DHT22;15921;52.034;20.650;2023-03-20T04:44:35;3.50;99.90
28767;DHT22;15921;52.034;20.650;2023-03-20T04:47:01;3.60;99.90
28767;DHT22;15921;52.034;20.650;2023-03-20T04:49:26;3.60;99.90
28767;DHT22;15921;52.034;20.650;2023-03-20T04:51:53;3.60;99.90
28767;DHT22;15921;52.034;20.650;2023-03-20T04:54:19;3.60;99.90
28767;DHT22;15921;52.034;20.650;2023-03-20T04:56:45;3.60;99.90
28767;DHT22;15921;52.034;20.650;2023-03-20T04:59:11;3.50;99.90
28767;DHT22;15921;52.034;20.650;2023-03-20T05:01:37;3.40;99.90
28767;DHT22;15921;52.034;20.650;2023-03-20T05:04:03;3.30;99.90
28767;DHT22;15921;52.034;20.650;2023-03-20T05:06:30;3.20;99.90
28767;DHT22;15921;52.034;20.650;2023-03-20T05:08:58;3.20;99.90
28767;DHT22;15921;52.034;20.650;2023-03-20T05:11:26;3.30;99.90
28767;DHT22;15921;52.034;20.650;2023-03-20T05:13:52;3.30;99.90
28767;DHT22;15921;52.034;20.650;2023-03-20T05:16:18;3.40;99.90
28767;DHT22;15921;52.034;20.650;2023-03-20T05:18:44;3.40;99.90
28767;DHT22;15921;52.034;20.650;2023-03-20T05:21:09;3.40;99.90
28767;DHT22;15921;52.034;20.650;2023-03-20T05:23:35;3.40;99.90
28767;DHT22;15921;52.034;20.650;2023-03-20T05:26:01;3.50;99.90
28767;DHT22;15921;52.034;20.650;2023-03-20T05:28:27;3.60;99.90
28767;DHT22;15921;52.034;20.650;2023-03-20T05:30:53;3.70;99.90
28767;DHT22;15921;52.034;20.650;2023-03-20T05:33:19;3.70;99.90
28767;DHT22;15921;52.034;20.650;2023-03-20T05:35:44;3.70;99.90
28767;DHT22;15921;52.034;20.650;2023-03-20T05:38:10;3.70;99.90
28767;DHT22;15921;52.034;20.650;2023-03-20T05:40:36;3.80;99.90
28767;DHT22;15921;52.034;20.650;2023-03-20T05:43:02;3.90;99.90
28767;DHT22;15921;52.034;20.650;2023-03-20T05:45:28;3.90;99.90
28767;DHT22;15921;52.034;20.650;2023-03-20T05:47:54;4.00;99.90
28767;DHT22;15921;52.034;20.650;2023-03-20T05:50:19;4.20;99.90
28767;DHT22;15921;52.034;20.650;2023-03-20T05:52:49;4.30;99.90
28767;DHT22;15921;52.034;20.650;2023-03-20T05:55:15;4.40;99.90
28767;DHT22;15921;52.034;20.650;2023-03-20T05:57:41;4.50;99.90
28767;DHT22;15921;52.034;20.650;2023-03-20T06:00:08;4.70;99.90
28767;DHT22;15921;52.034;20.650;2023-03-20T06:02:35;4.80;99.90
28767;DHT22;15921;52.034;20.650;2023-03-20T06:05:02;5.10;99.90
28767;DHT22;15921;52.034;20.650;2023-03-20T06:07:28;5.40;99.90
28767;DHT22;15921;52.034;20.650;2023-03-20T06:09:53;5.70;99.90
28767;DHT22;15921;52.034;20.650;2023-03-20T06:12:19;5.90;99.90
28767;DHT22;15921;52.034;20.650;2023-03-20T06:14:45;6.10;99.90
28767;DHT22;15921;52.034;20.650;2023-03-20T06:17:11;6.40;99.90
28767;DHT22;15921;52.034;20.650;2023-03-20T06:19:37;6.70;99.90
28767;DHT22;15921;52.034;20.650;2023-03-20T06:22:03;6.80;99.90
28767;DHT22;15921;52.034;20.650;2023-03-20T06:24:29;7.10;99.90
28767;DHT22;15921;52.034;20.650;2023-03-20T06:26:55;7.30;99.00
28767;DHT22;15921;52.034;20.650;2023-03-20T06:29:21;7.40;98.30
28767;DHT22;15921;52.034;20.650;2023-03-20T06:31:47;7.60;97.70
28767;DHT22;15921;52.034;20.650;2023-03-20T06:34:13;7.80;97.00
28767;DHT22;15921;52.034;20.650;2023-03-20T06:36:38;8.00;96.90
28767;DHT22;15921;52.034;20.650;2023-03-20T06:39:04;8.10;96.60
28767;DHT22;15921;52.034;20.650;2023-03-20T06:41:30;8.20;96.00
28767;DHT22;15921;52.034;20.650;2023-03-20T06:43:55;8.30;95.60
28767;DHT22;15921;52.034;20.650;2023-03-20T06:46:21;8.40;95.40
28767;DHT22;15921;52.034;20.650;2023-03-20T06:48:47;8.40;95.40
28767;DHT22;15921;52.034;20.650;2023-03-20T06:51:13;8.50;95.30
28767;DHT22;15921;52.034;20.650;2023-03-20T06:53:40;8.50;95.00
28767;DHT22;15921;52.034;20.650;2023-03-20T06:56:11;8.60;95.00
28767;DHT22;15921;52.034;20.650;2023-03-20T06:58:37;8.70;95.00
28767;DHT22;15921;52.034;20.650;2023-03-20T07:01:14;8.80;94.70
28767;DHT22;15921;52.034;20.650;2023-03-20T07:03:41;8.90;94.40
28767;DHT22;15921;52.034;20.650;2023-03-20T07:06:07;9.00;94.20
28767;DHT22;15921;52.034;20.650;2023-03-20T07:08:33;9.10;93.90
28767;DHT22;15921;52.034;20.650;2023-03-20T07:10:59;9.30;93.90
28767;DHT22;15921;52.034;20.650;2023-03-20T07:13:25;9.40;93.80
28767;DHT22;15921;52.034;20.650;2023-03-20T07:15:53;9.70;93.10
28767;DHT22;15921;52.034;20.650;2023-03-20T07:18:19;10.00;92.20
28767;DHT22;15921;52.034;20.650;2023-03-20T07:20:45;10.30;91.80
28767;DHT22;15921;52.034;20.650;2023-03-20T07:23:11;10.70;91.40
28767;DHT22;15921;52.034;20.650;2023-03-20T07:25:36;10.90;89.60
28767;DHT22;15921;52.034;20.650;2023-03-20T07:28:03;11.00;88.20
28767;DHT22;15921;52.034;20.650;2023-03-20T07:30:31;11.10;88.10
28767;DHT22;15921;52.034;20.650;2023-03-20T07:32:57;11.20;86.60
28767;DHT22;15921;52.034;20.650;2023-03-20T07:35:23;11.20;86.80
28767;DHT22;15921;52.034;20.650;2023-03-20T07:37:49;11.20;87.00
28767;DHT22;15921;52.034;20.650;2023-03-20T07:40:14;11.40;86.20
28767;DHT22;15921;52.034;20.650;2023-03-20T07:42:40;11.50;85.80
28767;DHT22;15921;52.034;20.650;2023-03-20T07:45:06;11.60;85.00
28767;DHT22;15921;52.034;20.650;2023-03-20T07:47:34;11.70;85.00
28767;DHT22;15921;52.034;20.650;2023-03-20T07:49:59;11.80;83.70
28767;DHT22;15921;52.034;20.650;2023-03-20T07:52:25;11.80;83.00
28767;DHT22;15921;52.034;20.650;2023-03-20T07:54:51;11.80;82.60
28767;DHT22;15921;52.034;20.650;2023-03-20T07:57:16;12.00;82.20
28767;DHT22;15921;52.034;20.650;2023-03-20T07:59:43;12.30;81.60
28767;DHT22;15921;52.034;20.650;2023-03-20T08:02:15;12.50;81.00
28767;DHT22;15921;52.034;20.650;2023-03-20T08:04:41;12.70;78.40
28767;DHT22;15921;52.034;20.650;2023-03-20T08:07:07;12.80;77.80
28767;DHT22;15921;52.034;20.650;2023-03-20T08:09:33;12.90;78.70
28767;DHT22;15921;52.034;20.650;2023-03-20T08:11:59;13.10;77.40
28767;DHT22;15921;52.034;20.650;2023-03-20T08:14:24;13.10;76.70
28767;DHT22;15921;52.034;20.650;2023-03-20T08:16:50;13.30;77.00
28767;DHT22;15921;52.034;20.650;2023-03-20T08:19:16;13.40;75.40
28767;DHT22;15921;52.034;20.650;2023-03-20T08:21:41;13.40;75.10
28767;DHT22;15921;52.034;20.650;2023-03-20T08:24:07;13.40;75.00
28767;DHT22;15921;52.034;20.650;2023-03-20T08:26:34;13.50;75.80
28767;DHT22;15921;52.034;20.650;2023-03-20T08:29:00;13.70;75.30
28767;DHT22;15921;52.034;20.650;2023-03-20T08:31:25;13.70;74.50
28767;DHT22;15921;52.034;20.650;2023-03-20T08:33:51;13.70;74.50
28767;DHT22;15921;52.034;20.650;2023-03-20T08:36:17;13.80;74.90
28767;DHT22;15921;52.034;20.650;2023-03-20T08:38:47;13.90;74.40
28767;DHT22;15921;52.034;20.650;2023-03-20T08:41:14;13.80;74.60
28767;DHT22;15921;52.034;20.650;2023-03-20T08:43:40;13.80;73.60
28767;DHT22;15921;52.034;20.650;2023-03-20T08:46:06;14.00;74.30
28767;DHT22;15921;52.034;20.650;2023-03-20T08:48:31;14.10;73.60
28767;DHT22;15921;52.034;20.650;2023-03-20T08:50:57;14.10;73.30
28767;DHT22;15921;52.034;20.650;2023-03-20T08:53:23;13.90;73.60
28767;DHT22;15921;52.034;20.650;2023-03-20T08:55:50;14.10;74.20
28767;DHT22;15921;52.034;20.650;2023-03-20T08:58:17;14.10;73.50
28767;DHT22;15921;52.034;20.650;2023-03-20T09:00:43;14.20;74.10
28767;DHT22;15921;52.034;20.650;2023-03-20T09:03:15;14.30;72.30
28767;DHT22;15921;52.034;20.650;2023-03-20T09:05:45;14.30;73.20
28767;DHT22;15921;52.034;20.650;2023-03-20T09:08:11;14.40;71.40
28767;DHT22;15921;52.034;20.650;2023-03-20T09:10:37;14.40;72.80
28767;DHT22;15921;52.034;20.650;2023-03-20T09:13:03;14.40;71.90
28767;DHT22;15921;52.034;20.650;2023-03-20T09:15:29;14.60;72.00
28767;DHT22;15921;52.034;20.650;2023-03-20T09:17:55;14.90;71.50
28767;DHT22;15921;52.034;20.650;2023-03-20T09:20:21;15.00;70.60
28767;DHT22;15921;52.034;20.650;2023-03-20T09:22:46;14.90;70.50
28767;DHT22;15921;52.034;20.650;2023-03-20T09:25:12;15.10;69.90
28767;DHT22;15921;52.034;20.650;2023-03-20T09:27:38;15.00;68.60
28767;DHT22;15921;52.034;20.650;2023-03-20T09:30:07;14.90;69.90
28767;DHT22;15921;52.034;20.650;2023-03-20T09:32:34;14.90;68.00
28767;DHT22;15921;52.034;20.650;2023-03-20T09:35:01;14.80;69.70
28767;DHT22;15921;52.034;20.650;2023-03-20T09:37:27;14.90;69.10
28767;DHT22;15921;52.034;20.650;2023-03-20T09:39:53;14.90;68.70
28767;DHT22;15921;52.034;20.650;2023-03-20T09:42:35;15.00;68.00
28767;DHT22;15921;52.034;20.650;2023-03-20T09:45:09;15.20;68.70
28767;DHT22;15921;52.034;20.650;2023-03-20T09:47:57;15.40;67.30
28767;DHT22;15921;52.034;20.650;2023-03-20T09:53:34;15.80;66.90
28767;DHT22;15921;52.034;20.650;2023-03-20T09:55:58;16.10;66.10
28767;DHT22;15921;52.034;20.650;2023-03-20T09:58:25;16.20;65.70
28767;DHT22;15921;52.034;20.650;2023-03-20T10:00:55;16.30;64.50
28767;DHT22;15921;52.034;20.650;2023-03-20T10:03:31;16.40;64.30
28767;DHT22;15921;52.034;20.650;2023-03-20T10:06:04;16.40;65.30
28767;DHT22;15921;52.034;20.650;2023-03-20T10:08:35;16.70;65.10
28767;DHT22;15921;52.034;20.650;2023-03-20T10:11:29;16.80;65.00
28767;DHT22;15921;52.034;20.650;2023-03-20T10:16:40;16.70;64.00
28767;DHT22;15921;52.034;20.650;2023-03-20T10:22:05;16.70;65.10
28767;DHT22;15921;52.034;20.650;2023-03-20T10:24:41;16.80;64.60
28767;DHT22;15921;52.034;20.650;2023-03-20T10:27:23;16.60;64.10
28767;DHT22;15921;52.034;20.650;2023-03-20T10:30:10;16.30;65.10
28767;DHT22;15921;52.034;20.650;2023-03-20T10:40:33;16.30;65.30
28767;DHT22;15921;52.034;20.650;2023-03-20T10:45:59;16.40;65.00
28767;DHT22;15921;52.034;20.650;2023-03-20T10:48:41;16.40;65.30
28767;DHT22;15921;52.034;20.650;2023-03-20T10:51:13;16.30;65.00
28767;DHT22;15921;52.034;20.650;2023-03-20T10:53:46;16.20;65.30
28767;DHT22;15921;52.034;20.650;2023-03-20T10:56:35;16.30;66.20
28767;DHT22;15921;52.034;20.650;2023-03-20T10:59:06;16.60;65.60
28767;DHT22;15921;52.034;20.650;2023-03-20T11:01:33;16.50;64.30
28767;DHT22;15921;52.034;20.650;2023-03-20T11:03:58;16.20;64.20
28767;DHT22;15921;52.034;20.650;2023-03-20T11:06:29;16.00;65.10
28767;DHT22;15921;52.034;20.650;2023-03-20T11:09:22;15.80;65.60
28767;DHT22;15921;52.034;20.650;2023-03-20T11:11:57;15.60;65.90
28767;DHT22;15921;52.034;20.650;2023-03-20T11:14:27;15.50;66.30
28767;DHT22;15921;52.034;20.650;2023-03-20T11:16:56;15.30;66.40
28767;DHT22;15921;52.034;20.650;2023-03-20T11:19:24;15.20;66.90
28767;DHT22;15921;52.034;20.650;2023-03-20T11:21:54;14.90;68.00
28767;DHT22;15921;52.034;20.650;2023-03-20T11:27:13;14.90;69.10
28767;DHT22;15921;52.034;20.650;2023-03-20T11:29:41;15.00;69.30
28767;DHT22;15921;52.034;20.650;2023-03-20T11:32:27;15.00;69.70
28767;DHT22;15921;52.034;20.650;2023-03-20T11:34:55;15.00;69.70
28767;DHT22;15921;52.034;20.650;2023-03-20T11:37:28;15.10;70.40
28767;DHT22;15921;52.034;20.650;2023-03-20T11:39:59;15.10;69.70
28767;DHT22;15921;52.034;20.650;2023-03-20T11:42:28;15.00;69.50
28767;DHT22;15921;52.034;20.650;2023-03-20T11:44:59;14.90;70.10
28767;DHT22;15921;52.034;20.650;2023-03-20T11:47:28;14.90;70.20
28767;DHT22;15921;52.034;20.650;2023-03-20T11:49:58;14.90;71.20
28767;DHT22;15921;52.034;20.650;2023-03-20T11:52:32;14.80;72.20
28767;DHT22;15921;52.034;20.650;2023-03-20T11:55:02;14.80;73.40
28767;DHT22;15921;52.034;20.650;2023-03-20T11:57:38;14.90;73.40
28767;DHT22;15921;52.034;20.650;2023-03-20T12:02:39;14.90;73.40
28767;DHT22;15921;52.034;20.650;2023-03-20T12:08:06;15.00;72.70
28767;DHT22;15921;52.034;20.650;2023-03-20T12:10:36;15.20;72.00
28767;DHT22;15921;52.034;20.650;2023-03-20T12:15:41;15.40;70.50
28767;DHT22;15921;52.034;20.650;2023-03-20T12:18:30;15.30;70.50
28767;DHT22;15921;52.034;20.650;2023-03-20T12:24:12;15.40;71.40
28767;DHT22;15921;52.034;20.650;2023-03-20T12:26:53;15.30;72.30
28767;DHT22;15921;52.034;20.650;2023-03-20T12:29:51;15.50;72.80
28767;DHT22;15921;52.034;20.650;2023-03-20T12:32:29;15.50;73.30
28767;DHT22;15921;52.034;20.650;2023-03-20T12:35:12;15.50;73.10
28767;DHT22;15921;52.034;20.650;2023-03-20T12:37:39;15.60;74.00
28767;DHT22;15921;52.034;20.650;2023-03-20T12:40:10;16.00;73.40
28767;DHT22;15921;52.034;20.650;2023-03-20T12:42:50;16.20;73.50
28767;DHT22;15921;52.034;20.650;2023-03-20T12:45:22;16.30;73.50
28767;DHT22;15921;52.034;20.650;2023-03-20T12:48:00;16.40;73.20
28767;DHT22;15921;52.034;20.650;2023-03-20T12:50:35;16.90;71.70
28767;DHT22;15921;52.034;20.650;2023-03-20T13:01:43;17.80;69.20
28767;DHT22;15921;52.034;20.650;2023-03-20T13:07:01;17.60;69.30
28767;DHT22;15921;52.034;20.650;2023-03-20T13:17:50;16.20;73.70
28767;DHT22;15921;52.034;20.650;2023-03-20T13:20:30;16.40;73.70
28767;DHT22;15921;52.034;20.650;2023-03-20T13:25:47;15.90;76.40
28767;DHT22;15921;52.034;20.650;2023-03-20T13:39:39;15.10;80.50
28767;DHT22;15921;52.034;20.650;2023-03-20T13:42:11;15.30;79.80
28767;DHT22;15921;52.034;20.650;2023-03-20T13:44:40;15.20;80.10
28767;DHT22;15921;52.034;20.650;2023-03-20T13:47:18;15.20;80.60
28767;DHT22;15921;52.034;20.650;2023-03-20T13:50:07;15.20;81.40
28767;DHT22;15921;52.034;20.650;2023-03-20T13:52:48;15.10;82.60
28767;DHT22;15921;52.034;20.650;2023-03-20T13:55:40;15.10;83.60
28767;DHT22;15921;52.034;20.650;2023-03-20T14:03:35;15.70;83.70
28767;DHT22;15921;52.034;20.650;2023-03-20T14:08:57;16.30;82.80
28767;DHT22;15921;52.034;20.650;2023-03-20T14:13:50;15.90;83.70
28767;DHT22;15921;52.034;20.650;2023-03-20T14:16:18;15.80;83.60
28767;DHT22;15921;52.034;20.650;2023-03-20T14:18:47;15.80;84.00
28767;DHT22;15921;52.034;20.650;2023-03-20T14:21:18;15.40;85.10
28767;DHT22;15921;52.034;20.650;2023-03-20T14:24:05;15.00;85.20
28767;DHT22;15921;52.034;20.650;2023-03-20T14:26:37;14.80;85.80
28767;DHT22;15921;52.034;20.650;2023-03-20T14:31:37;14.70;86.80
28767;DHT22;15921;52.034;20.650;2023-03-20T14:34:43;14.40;86.40
28767;DHT22;15921;52.034;20.650;2023-03-20T14:37:23;14.20;86.10
28767;DHT22;15921;52.034;20.650;2023-03-20T14:39:56;13.80;86.40
28767;DHT22;15921;52.034;20.650;2023-03-20T14:42:50;13.70;86.50
28767;DHT22;15921;52.034;20.650;2023-03-20T14:45:39;13.70;86.70
28767;DHT22;15921;52.034;20.650;2023-03-20T14:48:27;13.70;87.40
28767;DHT22;15921;52.034;20.650;2023-03-20T14:53:41;13.50;89.20
28767;DHT22;15921;52.034;20.650;2023-03-20T14:56:12;13.40;89.80
28767;DHT22;15921;52.034;20.650;2023-03-20T14:59:18;13.40;90.10
28767;DHT22;15921;52.034;20.650;2023-03-20T15:01:58;13.40;90.60
28767;DHT22;15921;52.034;20.650;2023-03-20T15:04:37;13.30;90.60
28767;DHT22;15921;52.034;20.650;2023-03-20T15:07:27;13.50;90.30
28767;DHT22;15921;52.034;20.650;2023-03-20T15:09:57;13.60;90.40
28767;DHT22;15921;52.034;20.650;2023-03-20T15:12:26;13.60;90.30
28767;DHT22;15921;52.034;20.650;2023-03-20T15:15:03;13.60;90.60
28767;DHT22;15921;52.034;20.650;2023-03-20T15:17:44;13.50;90.90
28767;DHT22;15921;52.034;20.650;2023-03-20T15:20:16;13.50;91.20
28767;DHT22;15921;52.034;20.650;2023-03-20T15:22:58;13.40;91.30
28767;DHT22;15921;52.034;20.650;2023-03-20T15:25:32;13.30;91.50
28767;DHT22;15921;52.034;20.650;2023-03-20T15:27:58;13.30;92.10
28767;DHT22;15921;52.034;20.650;2023-03-20T15:30:24;13.10;91.90
28767;DHT22;15921;52.034;20.650;2023-03-20T15:32:54;13.10;92.30
28767;DHT22;15921;52.034;20.650;2023-03-20T15:35:22;13.00;92.70
28767;DHT22;15921;52.034;20.650;2023-03-20T15:37:51;12.90;92.70
28767;DHT22;15921;52.034;20.650;2023-03-20T15:40:30;12.90;93.60
28767;DHT22;15921;52.034;20.650;2023-03-20T15:43:04;12.80;93.50
28767;DHT22;15921;52.034;20.650;2023-03-20T15:45:33;12.80;93.80
28767;DHT22;15921;52.034;20.650;2023-03-20T15:48:08;12.70;93.90
28767;DHT22;15921;52.034;20.650;2023-03-20T15:50:36;12.70;94.70
28767;DHT22;15921;52.034;20.650;2023-03-20T15:53:07;12.70;95.30
28767;DHT22;15921;52.034;20.650;2023-03-20T15:55:36;12.70;96.20
28767;DHT22;15921;52.034;20.650;2023-03-20T15:58:03;12.70;97.00
28767;DHT22;15921;52.034;20.650;2023-03-20T16:00:31;12.70;98.10
28767;DHT22;15921;52.034;20.650;2023-03-20T16:03:00;12.70;99.30
28767;DHT22;15921;52.034;20.650;2023-03-20T16:05:29;12.80;99.90
28767;DHT22;15921;52.034;20.650;2023-03-20T16:07:55;12.80;99.90
28767;DHT22;15921;52.034;20.650;2023-03-20T16:10:32;12.80;99.90
28767;DHT22;15921;52.034;20.650;2023-03-20T16:13:01;12.80;99.90
28767;DHT22;15921;52.034;20.650;2023-03-20T16:15:29;12.80;99.90
28767;DHT22;15921;52.034;20.650;2023-03-20T16:18:01;12.90;99.90
28767;DHT22;15921;52.034;20.650;2023-03-20T16:20:37;12.80;99.90
28767;DHT22;15921;52.034;20.650;2023-03-20T16:23:06;12.80;99.90
28767;DHT22;15921;52.034;20.650;2023-03-20T16:25:34;12.70;99.90
28767;DHT22;15921;52.034;20.650;2023-03-20T16:28:00;12.70;99.90
28767;DHT22;15921;52.034;20.650;2023-03-20T16:30:32;12.70;99.90
28767;DHT22;15921;52.034;20.650;2023-03-20T16:33:02;12.60;99.90
28767;DHT22;15921;52.034;20.650;2023-03-20T16:35:41;12.50;99.90
28767;DHT22;15921;52.034;20.650;2023-03-20T16:38:27;12.30;99.90
28767;DHT22;15921;52.034;20.650;2023-03-20T16:41:14;12.20;99.90
28767;DHT22;15921;52.034;20.650;2023-03-20T16:43:45;12.10;99.90
28767;DHT22;15921;52.034;20.650;2023-03-20T16:46:17;12.00;99.90
28767;DHT22;15921;52.034;20.650;2023-03-20T16:48:44;11.90;99.90
28767;DHT22;15921;52.034;20.650;2023-03-20T16:51:16;11.70;99.90
28767;DHT22;15921;52.034;20.650;2023-03-20T16:53:47;11.70;99.90
28767;DHT22;15921;52.034;20.650;2023-03-20T16:56:20;11.60;99.90
28767;DHT22;15921;52.034;20.650;2023-03-20T16:58:47;11.50;99.90
28767;DHT22;15921;52.034;20.650;2023-03-20T17:01:19;11.50;99.90
28767;DHT22;15921;52.034;20.650;2023-03-20T17:03:54;11.50;99.90
28767;DHT22;15921;52.034;20.650;2023-03-20T17:08:58;11.50;99.90
28767;DHT22;15921;52.034;20.650;2023-03-20T17:11:33;11.50;99.90
28767;DHT22;15921;52.034;20.650;2023-03-20T17:14:00;11.50;99.90
28767;DHT22;15921;52.034;20.650;2023-03-20T17:16:27;11.40;99.90
28767;DHT22;15921;52.034;20.650;2023-03-20T17:19:01;11.40;99.90
28767;DHT22;15921;52.034;20.650;2023-03-20T17:21:27;11.40;99.90
28767;DHT22;15921;52.034;20.650;2023-03-20T17:23:54;11.30;99.90
28767;DHT22;15921;52.034;20.650;2023-03-20T17:26:19;11.20;99.90
28767;DHT22;15921;52.034;20.650;2023-03-20T17:28:46;11.00;99.90
28767;DHT22;15921;52.034;20.650;2023-03-20T17:31:13;10.90;99.90
28767;DHT22;15921;52.034;20.650;2023-03-20T17:33:39;10.80;99.90
28767;DHT22;15921;52.034;20.650;2023-03-20T17:36:23;10.60;99.90
28767;DHT22;15921;52.034;20.650;2023-03-20T17:38:51;10.50;99.90
28767;DHT22;15921;52.034;20.650;2023-03-20T17:41:18;10.40;99.90